createdAt,value
2018-09-16T00:00:05.891Z,75.45
2018-09-16T00:01:06.129Z,75.07
2018-09-16T00:02:06.366Z,78.22
2018-09-16T00:03:06.608Z,80.18
2018-09-16T00:04:06.847Z,73.13
2018-09-16T00:05:07.080Z,70.75
2018-09-16T00:06:07.319Z,70.27
2018-09-16T00:07:07.556Z,63.51
2018-09-16T00:08:07.793Z,68.08
2018-09-16T00:09:08.032Z,70.27
2018-09-16T00:10:08.269Z,70.75
2018-09-16T00:11:08.507Z,71.70
2018-09-16T00:12:08.746Z,72.75
2018-09-16T00:13:08.983Z,73.22
2018-09-16T00:14:09.222Z,73.32
2018-09-16T00:15:09.459Z,71.98
2018-09-16T00:16:09.699Z,71.89
2018-09-16T00:17:09.934Z,71.80
2018-09-16T00:18:10.171Z,70.56
2018-09-16T00:19:10.409Z,69.51
2018-09-16T00:20:10.647Z,66.85
2018-09-16T00:21:10.884Z,66.56
2018-09-16T00:22:11.122Z,66.66
2018-09-16T00:23:11.361Z,64.56
2018-09-16T00:24:11.598Z,60.18
2018-09-16T00:25:11.836Z,58.18
2018-09-16T00:26:12.073Z,56.92
2018-09-16T00:27:12.312Z,55.29
2018-09-16T00:28:12.550Z,53.77
2018-09-16T00:29:12.786Z,54.06
2018-09-16T00:30:13.025Z,61.38
2018-09-16T00:31:13.261Z,64.90
2018-09-16T00:32:13.498Z,67.29
2018-09-16T00:33:13.738Z,70.43
2018-09-16T00:34:13.974Z,73.76
2018-09-16T00:35:14.209Z,77.51
2018-09-16T00:36:14.447Z,77.51
2018-09-16T00:37:14.683Z,77.47
2018-09-16T00:38:14.920Z,75.47
2018-09-16T00:39:15.159Z,75.28
2018-09-16T00:40:15.395Z,73.76
2018-09-16T00:41:15.634Z,74.04
2018-09-16T00:42:15.871Z,75.76
2018-09-16T00:43:16.108Z,73.57
2018-09-16T00:44:16.344Z,72.24
2018-09-16T00:45:16.581Z,70.62
2018-09-16T00:46:16.818Z,71.95
2018-09-16T00:47:17.058Z,73.10
2018-09-16T00:48:17.292Z,74.62
2018-09-16T00:49:17.529Z,75.19
2018-09-16T00:50:17.766Z,76.90
2018-09-16T00:51:18.005Z,77.28
2018-09-16T00:52:18.240Z,77.28
2018-09-16T00:53:18.477Z,75.85
2018-09-16T00:54:18.715Z,71.47
2018-09-16T00:55:18.951Z,68.33
2018-09-16T00:56:19.188Z,63.96
2018-09-16T00:57:19.426Z,59.10
2018-09-16T00:58:19.661Z,57.77
2018-09-16T00:59:19.899Z,56.05
2018-09-16T01:00:20.135Z,59.48
2018-09-16T01:01:20.372Z,61.29
2018-09-16T01:02:20.608Z,63.29
2018-09-16T01:03:20.845Z,64.24
2018-09-16T01:04:21.083Z,61.77
2018-09-16T01:05:21.319Z,60.72
2018-09-16T01:06:21.556Z,62.43
2018-09-16T01:07:21.792Z,63.86
2018-09-16T01:08:22.030Z,64.72
2018-09-16T01:09:22.270Z,62.62
2018-09-16T01:10:22.504Z,62.53
2018-09-16T01:11:22.740Z,68.05
2018-09-16T01:12:22.978Z,66.91
2018-09-16T01:13:23.214Z,68.87
2018-09-16T01:14:23.450Z,67.44
2018-09-16T01:15:23.688Z,68.11
2018-09-16T01:16:23.925Z,69.92
2018-09-16T01:17:24.165Z,68.11
2018-09-16T01:18:24.403Z,65.73
2018-09-16T01:19:24.636Z,62.21
2018-09-16T01:20:24.872Z,59.83
2018-09-16T01:21:25.108Z,60.50
2018-09-16T01:22:25.346Z,61.83
2018-09-16T01:23:25.582Z,57.93
2018-09-16T01:24:25.819Z,52.32
2018-09-16T01:25:26.057Z,52.51
2018-09-16T01:26:26.292Z,52.41
2018-09-16T01:27:26.527Z,50.70
2018-09-16T01:28:26.765Z,47.56
2018-09-16T01:29:27.003Z,46.04
2018-09-16T01:30:27.237Z,44.42
2018-09-16T01:31:27.474Z,44.13
2018-09-16T01:32:27.711Z,45.95
2018-09-16T01:33:27.947Z,47.85
2018-09-16T01:34:28.184Z,50.23
2018-09-16T01:35:28.422Z,50.13
2018-09-16T01:36:28.658Z,48.13
2018-09-16T01:37:28.893Z,45.56
2018-09-16T01:38:29.130Z,43.57
2018-09-16T01:39:29.368Z,43.38
2018-09-16T01:40:29.604Z,42.80
2018-09-16T01:41:29.844Z,43.47
2018-09-16T01:42:30.080Z,44.04
2018-09-16T01:43:30.317Z,44.80
2018-09-16T01:44:30.557Z,44.68
2018-09-16T01:45:30.793Z,42.40
2018-09-16T01:46:31.029Z,39.07
2018-09-16T01:47:31.267Z,36.04
2018-09-16T01:48:31.502Z,32.70
2018-09-16T01:49:31.740Z,30.71
2018-09-16T01:50:31.976Z,30.52
2018-09-16T01:51:32.213Z,28.71
2018-09-16T01:52:32.449Z,28.33
2018-09-16T01:53:32.687Z,28.42
2018-09-16T01:54:32.924Z,27.00
2018-09-16T01:55:33.161Z,25.20
2018-09-16T01:56:33.399Z,23.67
2018-09-16T01:57:33.637Z,28.14
2018-09-16T01:58:33.873Z,29.28
2018-09-16T01:59:34.110Z,26.14
2018-09-16T02:00:34.347Z,24.15
2018-09-16T02:01:34.582Z,25.48
2018-09-16T02:02:34.819Z,25.10
2018-09-16T02:03:35.057Z,25.38
2018-09-16T02:04:35.292Z,26.24
2018-09-16T02:05:35.528Z,27.38
2018-09-16T02:06:35.767Z,29.95
2018-09-16T02:07:36.005Z,30.62
2018-09-16T02:08:36.241Z,29.75
2018-09-16T02:09:36.479Z,27.95
2018-09-16T02:10:36.715Z,26.24
2018-09-16T02:11:36.956Z,26.05
2018-09-16T02:12:37.189Z,25.95
2018-09-16T02:13:37.427Z,25.20
2018-09-16T02:14:37.662Z,25.10
2018-09-16T02:15:37.901Z,24.35
2018-09-16T02:16:38.136Z,25.96
2018-09-16T02:17:38.372Z,27.39
2018-09-16T02:18:38.610Z,28.82
2018-09-16T02:19:38.848Z,32.34
2018-09-16T02:20:39.084Z,33.96
2018-09-16T02:21:39.322Z,36.15
2018-09-16T02:22:39.559Z,37.57
2018-09-16T02:23:39.797Z,37.95
2018-09-16T02:24:40.034Z,39.67
2018-09-16T02:25:40.270Z,40.43
2018-09-16T02:26:40.508Z,39.76
2018-09-16T02:27:40.743Z,39.28
2018-09-16T02:28:40.980Z,38.71
2018-09-16T02:29:41.215Z,38.14
2018-09-16T02:30:41.454Z,38.34
2018-09-16T02:31:41.688Z,38.90
2018-09-16T02:32:41.925Z,38.53
2018-09-16T02:33:42.167Z,38.12
2018-09-16T02:34:42.397Z,36.13
2018-09-16T02:35:42.633Z,35.94
2018-09-16T02:36:42.871Z,36.32
2018-09-16T02:37:43.106Z,36.89
2018-09-16T02:38:43.343Z,37.93
2018-09-16T02:39:43.579Z,38.79
2018-09-16T02:40:43.816Z,38.79
2018-09-16T02:41:44.055Z,35.56
2018-09-16T02:42:44.289Z,32.61
2018-09-16T02:43:44.527Z,29.47
2018-09-16T02:44:44.764Z,29.38
2018-09-16T02:45:45.000Z,29.09
2018-09-16T02:46:45.236Z,28.33
2018-09-16T02:47:45.473Z,25.57
2018-09-16T02:48:45.711Z,24.53
2018-09-16T02:49:45.948Z,23.48
2018-09-16T02:50:46.184Z,22.71
2018-09-16T02:51:46.421Z,21.30
2018-09-16T02:52:46.657Z,20.90
2018-09-16T02:53:46.894Z,20.62
2018-09-16T02:54:47.131Z,18.91
2018-09-16T02:55:47.367Z,18.26
2018-09-16T02:56:47.605Z,18.81
2018-09-16T02:57:47.842Z,18.91
2018-09-16T02:58:48.078Z,18.34
2018-09-16T02:59:48.316Z,17.68
2018-09-16T03:00:48.626Z,17.48
2018-09-16T03:01:48.793Z,17.96
2018-09-16T03:02:49.027Z,17.96
2018-09-16T03:03:49.265Z,17.86
2018-09-16T03:04:49.501Z,18.05
2018-09-16T03:05:49.738Z,18.24
2018-09-16T03:06:49.973Z,18.24
2018-09-16T03:07:50.210Z,18.05
2018-09-16T03:08:50.447Z,16.44
2018-09-16T03:09:50.684Z,15.30
2018-09-16T03:10:50.920Z,14.44
2018-09-16T03:11:51.237Z,15.01
2018-09-16T03:12:51.393Z,14.92
2018-09-16T03:13:51.630Z,15.77
2018-09-16T03:14:51.866Z,16.53
2018-09-16T03:15:52.102Z,17.29
2018-09-16T03:16:52.340Z,17.96
2018-09-16T03:17:52.576Z,17.58
2018-09-16T03:18:52.840Z,16.82
2018-09-16T03:19:53.049Z,14.73
2018-09-16T03:20:53.287Z,12.63
2018-09-16T03:21:53.524Z,12.54
2018-09-16T03:22:53.758Z,12.82
2018-09-16T03:23:53.996Z,14.92
2018-09-16T03:24:54.233Z,15.39
2018-09-16T03:25:54.470Z,16.82
2018-09-16T03:26:54.711Z,16.53
2018-09-16T03:27:54.944Z,16.44
2018-09-16T03:28:55.180Z,16.63
2018-09-16T03:29:55.417Z,16.25
2018-09-16T03:30:55.654Z,16.35
2018-09-16T03:31:55.891Z,16.53
2018-09-16T03:32:56.132Z,17.39
2018-09-16T03:33:56.363Z,18.15
2018-09-16T03:34:56.602Z,18.91
2018-09-16T03:35:56.837Z,19.38
2018-09-16T03:36:57.073Z,19.57
2018-09-16T03:37:57.310Z,20.14
2018-09-16T03:38:57.549Z,20.43
2018-09-16T03:39:57.788Z,19.20
2018-09-16T03:40:58.024Z,17.10
2018-09-16T03:41:58.257Z,16.15
2018-09-16T03:42:58.497Z,16.06
2018-09-16T03:43:58.732Z,15.39
2018-09-16T03:44:58.968Z,14.92
2018-09-16T03:45:59.204Z,13.59
2018-09-16T03:46:59.439Z,12.82
2018-09-16T03:47:59.676Z,15.58
2018-09-16T03:48:59.953Z,17.58
2018-09-16T03:50:00.149Z,18.05
2018-09-16T03:51:00.445Z,18.72
2018-09-16T03:52:00.627Z,19.57
2018-09-16T03:53:00.858Z,20.23
2018-09-16T03:54:01.096Z,20.32
2018-09-16T03:55:01.332Z,19.47
2018-09-16T03:56:01.569Z,18.80
2018-09-16T03:57:01.806Z,18.43
2018-09-16T03:58:02.045Z,17.38
2018-09-16T03:59:02.283Z,17.38
2018-09-16T04:00:02.518Z,16.52
2018-09-16T04:01:02.754Z,14.91
2018-09-16T04:02:02.993Z,12.92
2018-09-16T04:03:03.229Z,12.25
2018-09-16T04:04:03.465Z,11.11
2018-09-16T04:05:03.704Z,10.54
2018-09-16T04:06:03.941Z,9.02
2018-09-16T04:07:04.177Z,8.45
2018-09-16T04:08:04.416Z,8.26
2018-09-16T04:09:04.650Z,8.73
2018-09-16T04:10:04.886Z,9.21
2018-09-16T04:11:05.128Z,10.06
2018-09-16T04:12:05.358Z,10.16
2018-09-16T04:13:05.596Z,9.02
2018-09-16T04:14:05.837Z,8.64
2018-09-16T04:15:06.071Z,8.92
2018-09-16T04:16:06.306Z,8.45
2018-09-16T04:17:06.545Z,8.92
2018-09-16T04:18:06.795Z,9.21
2018-09-16T04:19:07.016Z,9.02
2018-09-16T04:20:07.254Z,9.40
2018-09-16T04:21:07.526Z,9.40
2018-09-16T04:22:07.728Z,9.50
2018-09-16T04:23:07.968Z,10.06
2018-09-16T04:24:08.202Z,10.25
2018-09-16T04:25:08.441Z,10.25
2018-09-16T04:26:08.678Z,9.97
2018-09-16T04:27:08.916Z,10.44
2018-09-16T04:28:09.153Z,10.92
2018-09-16T04:29:09.390Z,11.49
2018-09-16T04:30:09.629Z,10.92
2018-09-16T04:31:09.865Z,9.02
2018-09-16T04:32:10.104Z,6.36
2018-09-16T04:33:10.339Z,5.51
2018-09-16T04:34:10.577Z,4.56
2018-09-16T04:35:10.815Z,5.51
2018-09-16T04:36:11.050Z,7.03
2018-09-16T04:37:11.287Z,8.26
2018-09-16T04:38:11.528Z,8.07
2018-09-16T04:39:11.763Z,7.98
2018-09-16T04:40:11.997Z,8.17
2018-09-16T04:41:12.232Z,7.69
2018-09-16T04:42:12.469Z,6.74
2018-09-16T04:43:12.706Z,7.40
2018-09-16T04:44:12.941Z,7.31
2018-09-16T04:45:13.179Z,7.60
2018-09-16T04:46:13.418Z,8.26
2018-09-16T04:47:13.650Z,8.83
2018-09-16T04:48:13.886Z,9.88
2018-09-16T04:49:14.124Z,11.02
2018-09-16T04:50:14.359Z,12.82
2018-09-16T04:51:14.597Z,14.43
2018-09-16T04:52:14.833Z,15.48
2018-09-16T04:53:15.069Z,15.67
2018-09-16T04:54:15.305Z,12.82
2018-09-16T04:55:15.542Z,9.97
2018-09-16T04:56:15.779Z,8.54
2018-09-16T04:57:16.014Z,7.21
2018-09-16T04:58:16.251Z,6.65
2018-09-16T04:59:16.487Z,6.17
2018-09-16T05:00:16.723Z,6.55
2018-09-16T05:01:16.976Z,7.31
2018-09-16T05:02:17.197Z,7.98
2018-09-16T05:03:17.434Z,9.31
2018-09-16T05:04:17.670Z,9.02
2018-09-16T05:05:17.907Z,9.12
2018-09-16T05:06:18.143Z,8.45
2018-09-16T05:07:18.381Z,8.64
2018-09-16T05:08:18.616Z,9.78
2018-09-16T05:09:18.853Z,10.73
2018-09-16T05:10:19.098Z,11.21
2018-09-16T05:11:19.324Z,10.92
2018-09-16T05:12:19.559Z,10.44
2018-09-16T05:13:19.798Z,9.40
2018-09-16T05:14:20.035Z,9.02
2018-09-16T05:15:20.273Z,8.64
2018-09-16T05:16:20.509Z,8.64
2018-09-16T05:17:20.744Z,8.64
2018-09-16T05:18:20.981Z,8.45
2018-09-16T05:19:21.217Z,8.17
2018-09-16T05:20:21.454Z,7.98
2018-09-16T05:21:21.694Z,7.50
2018-09-16T05:22:21.928Z,6.93
2018-09-16T05:23:22.164Z,7.31
2018-09-16T05:24:22.400Z,8.07
2018-09-16T05:25:22.637Z,8.92
2018-09-16T05:26:22.875Z,10.25
2018-09-16T05:27:23.111Z,10.83
2018-09-16T05:28:23.349Z,12.44
2018-09-16T05:29:23.586Z,13.68
2018-09-16T05:30:23.822Z,14.62
2018-09-16T05:31:24.095Z,15.68
2018-09-16T05:32:24.296Z,16.82
2018-09-16T05:33:24.535Z,17.39
2018-09-16T05:34:24.776Z,17.77
2018-09-16T05:35:25.006Z,18.43
2018-09-16T05:36:25.242Z,19.38
2018-09-16T05:37:25.479Z,20.43
2018-09-16T05:38:25.716Z,20.81
2018-09-16T05:39:25.953Z,22.44
2018-09-16T05:40:26.192Z,22.91
2018-09-16T05:41:26.432Z,23.96
2018-09-16T05:42:26.667Z,25.48
2018-09-16T05:43:26.953Z,27.38
2018-09-16T05:44:27.144Z,28.81
2018-09-16T05:45:27.383Z,29.95
2018-09-16T05:46:27.620Z,31.01
2018-09-16T05:47:27.858Z,32.72
2018-09-16T05:48:28.095Z,34.53
2018-09-16T05:49:28.332Z,38.64
2018-09-16T05:50:28.569Z,43.80
2018-09-16T05:51:28.808Z,58.21
2018-09-16T05:52:29.044Z,82.03
2018-09-16T05:53:29.416Z,91.60
2018-09-16T05:54:29.520Z,92.50
2018-09-16T05:55:29.757Z,99.99
2018-09-16T05:56:30.006Z,99.99
2018-09-16T05:57:30.245Z,99.99
2018-09-16T05:58:30.481Z,99.99
2018-09-16T05:59:30.721Z,99.99
2018-09-16T06:00:30.959Z,99.99
2018-09-16T06:01:31.197Z,99.99
2018-09-16T06:02:31.433Z,99.99
2018-09-16T06:03:31.673Z,99.99
2018-09-16T06:04:31.910Z,99.99
2018-09-16T06:05:32.149Z,99.99
2018-09-16T06:06:32.386Z,99.99
2018-09-16T06:07:32.622Z,99.99
2018-09-16T06:08:32.860Z,99.99
2018-09-16T06:09:33.098Z,99.99
2018-09-16T06:10:33.336Z,99.99
2018-09-16T06:11:33.573Z,99.99
2018-09-16T06:12:33.810Z,99.99
2018-09-16T06:13:34.050Z,99.99
2018-09-16T06:14:34.287Z,99.99
2018-09-16T06:15:34.523Z,99.99
2018-09-16T06:16:34.762Z,99.99
2018-09-16T06:17:34.999Z,99.99
2018-09-16T06:18:35.239Z,99.99
2018-09-16T06:19:35.478Z,99.99
2018-09-16T06:20:35.716Z,99.99
2018-09-16T06:21:35.956Z,99.99
2018-09-16T06:22:36.219Z,99.99
2018-09-16T06:23:36.434Z,99.99
2018-09-16T06:24:36.671Z,99.99
2018-09-16T06:25:36.910Z,99.99
2018-09-16T06:26:37.148Z,99.99
2018-09-16T06:27:37.387Z,98.28
2018-09-16T06:28:37.626Z,95.07
2018-09-16T06:29:37.865Z,92.44
2018-09-16T06:30:38.107Z,88.56
2018-09-16T06:31:38.346Z,86.31
2018-09-16T06:32:38.585Z,84.88
2018-09-16T06:33:38.869Z,84.01
2018-09-16T06:34:39.066Z,83.58
2018-09-16T06:35:39.305Z,82.90
2018-09-16T06:36:39.547Z,81.31
2018-09-16T06:37:39.785Z,79.53
2018-09-16T06:38:40.027Z,78.86
2018-09-16T06:39:40.267Z,78.77
2018-09-16T06:40:40.506Z,79.68
2018-09-16T06:41:40.748Z,81.70
2018-09-16T06:42:40.988Z,81.51
2018-09-16T06:43:41.228Z,79.53
2018-09-16T06:44:41.468Z,79.44
2018-09-16T06:45:41.710Z,77.61
2018-09-16T06:46:41.951Z,77.90
2018-09-16T06:47:42.193Z,77.80
2018-09-16T06:48:42.434Z,77.42
2018-09-16T06:49:42.676Z,77.33
2018-09-16T06:50:42.917Z,76.94
2018-09-16T06:51:43.159Z,77.23
2018-09-16T06:52:43.401Z,76.94
2018-09-16T06:53:43.644Z,76.37
2018-09-16T06:54:43.885Z,75.70
2018-09-16T06:55:44.127Z,74.19
2018-09-16T06:56:44.368Z,73.08
2018-09-16T06:57:44.611Z,72.41
2018-09-16T06:58:44.854Z,70.52
2018-09-16T06:59:45.102Z,70.04
2018-09-16T07:00:45.390Z,70.27
2018-09-16T07:01:45.584Z,68.86
2018-09-16T07:02:45.829Z,67.71
2018-09-16T07:03:46.069Z,67.71
2018-09-16T07:04:46.313Z,66.10
2018-09-16T07:05:46.556Z,65.63
2018-09-16T07:06:46.800Z,66.36
2018-09-16T07:07:47.043Z,66.78
2018-09-16T07:08:47.285Z,65.27
2018-09-16T07:09:47.530Z,65.30
2018-09-16T07:10:47.774Z,64.25
2018-09-16T07:11:48.021Z,63.76
2018-09-16T07:12:48.260Z,63.85
2018-09-16T07:13:48.503Z,63.38
2018-09-16T07:14:48.749Z,63.21
2018-09-16T07:15:48.990Z,62.35
2018-09-16T07:16:49.237Z,62.63
2018-09-16T07:17:49.480Z,62.18
2018-09-16T07:18:49.727Z,61.25
2018-09-16T07:19:49.970Z,59.61
2018-09-16T07:20:50.219Z,58.48
2018-09-16T07:21:50.461Z,58.45
2018-09-16T07:22:50.705Z,58.65
2018-09-16T07:23:50.949Z,59.39
2018-09-16T07:24:51.195Z,59.87
2018-09-16T07:25:51.441Z,59.68
2018-09-16T07:26:51.745Z,60.00
2018-09-16T07:27:51.933Z,58.87
2018-09-16T07:28:52.180Z,57.74
2018-09-16T07:29:52.428Z,56.68
2018-09-16T07:30:52.674Z,56.32
2018-09-16T07:31:52.922Z,55.87
2018-09-16T07:32:53.171Z,55.31
2018-09-16T07:33:53.454Z,54.90
2018-09-16T07:34:53.663Z,54.90
2018-09-16T07:35:53.912Z,54.97
2018-09-16T07:36:54.158Z,55.09
2018-09-16T07:37:54.404Z,55.09
2018-09-16T07:38:54.651Z,54.93
2018-09-16T07:39:54.898Z,54.17
2018-09-16T07:40:55.145Z,53.31
2018-09-16T07:41:55.393Z,52.85
2018-09-16T07:42:55.641Z,52.00
2018-09-16T07:43:55.891Z,50.87
2018-09-16T07:44:56.136Z,50.70
2018-09-16T07:45:56.385Z,50.50
2018-09-16T07:46:56.633Z,50.99
2018-09-16T07:47:56.879Z,50.24
2018-09-16T07:48:57.124Z,49.66
2018-09-16T07:49:57.379Z,49.46
2018-09-16T07:50:57.629Z,48.90
2018-09-16T07:51:57.863Z,48.35
2018-09-16T07:52:58.222Z,47.86
2018-09-16T07:53:58.354Z,47.18
2018-09-16T07:54:58.604Z,46.94
2018-09-16T07:55:58.852Z,48.47
2018-09-16T07:56:59.105Z,50.07
2018-09-16T07:57:59.354Z,50.65
2018-09-16T07:58:59.604Z,50.29
2018-09-16T07:59:59.854Z,50.65
2018-09-16T08:01:00.148Z,50.38
2018-09-16T08:02:00.352Z,49.75
2018-09-16T08:03:00.602Z,48.32
2018-09-16T08:04:00.839Z,47.38
2018-09-16T08:05:08.719Z,46.15
2018-09-16T08:06:09.091Z,45.28
2018-09-16T08:07:10.332Z,44.92
2018-09-16T08:08:09.720Z,44.24
2018-09-16T08:09:02.398Z,43.67
2018-09-16T08:10:02.650Z,43.96
2018-09-16T08:11:02.909Z,43.96
2018-09-16T08:12:03.150Z,43.01
2018-09-16T08:13:03.404Z,42.60
2018-09-16T08:14:03.655Z,42.63
2018-09-16T08:15:03.906Z,42.06
2018-09-16T08:16:04.155Z,41.96
2018-09-16T08:17:04.408Z,41.30
2018-09-16T08:18:04.660Z,40.62
2018-09-16T08:19:04.910Z,42.08
2018-09-16T08:20:05.164Z,41.30
2018-09-16T08:21:05.470Z,40.91
2018-09-16T08:22:05.667Z,41.71
2018-09-16T08:23:05.920Z,40.83
2018-09-16T08:24:06.172Z,41.13
2018-09-16T08:25:06.423Z,41.13
2018-09-16T08:26:06.674Z,40.25
2018-09-16T08:27:06.929Z,40.17
2018-09-16T08:28:07.180Z,39.76
2018-09-16T08:29:07.434Z,40.68
2018-09-16T08:30:07.755Z,40.48
2018-09-16T08:31:07.944Z,39.49
2018-09-16T08:32:08.208Z,39.92
2018-09-16T08:33:08.458Z,38.77
2018-09-16T08:34:08.715Z,37.81
2018-09-16T08:35:08.968Z,36.75
2018-09-16T08:36:09.227Z,35.48
2018-09-16T08:37:09.480Z,35.68
2018-09-16T08:38:09.843Z,35.77
2018-09-16T08:39:09.995Z,35.75
2018-09-16T08:40:19.915Z,35.58
2018-09-16T08:41:10.540Z,36.16
2018-09-16T08:42:10.786Z,35.77
2018-09-16T08:43:11.057Z,35.27
2018-09-16T08:44:11.298Z,36.33
2018-09-16T08:45:11.566Z,36.83
2018-09-16T08:46:11.805Z,36.82
2018-09-16T08:47:12.065Z,35.75
2018-09-16T08:48:12.330Z,35.27
2018-09-16T08:49:12.590Z,35.75
2018-09-16T08:50:12.831Z,35.27
2018-09-16T08:51:13.096Z,34.29
2018-09-16T08:52:13.344Z,35.55
2018-09-16T08:53:13.581Z,35.64
2018-09-16T08:54:13.807Z,35.27
2018-09-16T08:55:14.102Z,35.04
2018-09-16T08:56:14.324Z,35.41
2018-09-16T08:57:14.580Z,37.07
2018-09-16T08:58:14.893Z,36.94
2018-09-16T08:59:15.079Z,38.10
2018-09-16T09:00:15.332Z,37.75
2018-09-16T09:01:15.574Z,36.70
2018-09-16T09:02:15.823Z,35.45
2018-09-16T09:03:16.080Z,35.72
2018-09-16T09:04:16.381Z,36.00
2018-09-16T09:05:26.202Z,38.71
2018-09-16T09:06:16.824Z,39.90
2018-09-16T09:07:17.065Z,39.53
2018-09-16T09:08:17.319Z,38.98
2018-09-16T09:09:17.572Z,38.22
2018-09-16T09:10:17.835Z,37.95
2018-09-16T09:11:18.086Z,37.65
2018-09-16T09:12:18.341Z,36.90
2018-09-16T09:13:18.592Z,38.28
2018-09-16T09:14:26.615Z,38.02
2018-09-16T09:15:19.177Z,36.66
2018-09-16T09:16:28.079Z,36.74
2018-09-16T09:17:19.838Z,38.62
2018-09-16T09:18:20.075Z,37.91
2018-09-16T09:19:20.332Z,37.93
2018-09-16T09:20:29.209Z,40.31
2018-09-16T09:21:28.619Z,41.80
2018-09-16T09:22:30.324Z,43.79
2018-09-16T09:23:29.353Z,45.15
2018-09-16T09:24:21.895Z,45.76
2018-09-16T09:25:29.783Z,44.05
2018-09-16T09:26:31.110Z,41.05
2018-09-16T09:27:30.492Z,39.47
2018-09-16T09:28:23.164Z,39.24
2018-09-16T09:29:31.125Z,37.62
2018-09-16T09:30:32.400Z,35.24
2018-09-16T09:31:32.009Z,35.07
2018-09-16T09:32:34.058Z,32.84
2018-09-16T09:33:32.316Z,32.58
2018-09-16T09:34:34.617Z,31.99
2018-09-16T09:35:33.968Z,32.10
2018-09-16T09:36:33.307Z,31.62
2018-09-16T09:37:34.652Z,32.35
2018-09-16T09:38:35.027Z,34.25
2018-09-16T09:39:34.441Z,38.46
2018-09-16T09:40:27.124Z,39.39
2018-09-16T09:41:35.028Z,38.98
2018-09-16T09:42:27.698Z,41.05
2018-09-16T09:43:35.586Z,42.23
2018-09-16T09:44:28.286Z,39.24
2018-09-16T09:45:36.145Z,38.70
2018-09-16T09:46:28.829Z,37.41
2018-09-16T09:47:36.745Z,36.63
2018-09-16T09:48:29.425Z,34.78
2018-09-16T09:49:37.351Z,35.41
2018-09-16T09:50:39.669Z,38.57
2018-09-16T09:51:30.250Z,37.76
2018-09-16T09:52:30.503Z,36.33
2018-09-16T09:53:30.780Z,35.47
2018-09-16T09:54:31.009Z,35.67
2018-09-16T09:55:31.262Z,34.05
2018-09-16T09:56:31.511Z,34.21
2018-09-16T09:57:31.767Z,33.73
2018-09-16T09:58:32.033Z,33.85
2018-09-16T09:59:32.274Z,33.73
2018-09-16T10:00:32.530Z,33.11
2018-09-16T10:01:40.437Z,33.02
2018-09-16T10:02:33.124Z,31.98
2018-09-16T10:03:42.061Z,31.59
2018-09-16T10:04:41.507Z,32.66
2018-09-16T10:05:34.108Z,31.21
2018-09-16T10:06:34.345Z,30.46
2018-09-16T10:07:34.598Z,29.85
2018-09-16T10:08:34.854Z,29.18
2018-09-16T10:09:42.737Z,29.55
2018-09-16T10:10:35.418Z,30.98
2018-09-16T10:11:35.684Z,30.88
2018-09-16T10:12:35.942Z,29.84
2018-09-16T10:13:36.187Z,29.63
2018-09-16T10:14:36.443Z,29.64
2018-09-16T10:15:36.693Z,29.74
2018-09-16T10:16:36.948Z,28.74
2018-09-16T10:17:37.208Z,29.36
2018-09-16T10:18:37.459Z,31.12
2018-09-16T10:19:37.717Z,30.84
2018-09-16T10:20:37.960Z,31.02
2018-09-16T10:21:38.223Z,32.23
2018-09-16T10:22:38.535Z,33.38
2018-09-16T10:23:38.734Z,32.42
2018-09-16T10:24:38.990Z,32.62
2018-09-16T10:25:39.250Z,32.71
2018-09-16T10:26:47.134Z,32.62
2018-09-16T10:27:39.827Z,33.34
2018-09-16T10:28:40.062Z,33.93
2018-09-16T10:29:40.317Z,33.59
2018-09-16T10:30:40.570Z,33.14
2018-09-16T10:31:40.823Z,31.33
2018-09-16T10:32:41.082Z,29.67
2018-09-16T10:33:41.328Z,29.86
2018-09-16T10:34:41.586Z,29.25
2018-09-16T10:35:41.840Z,30.15
2018-09-16T10:36:42.095Z,29.31
2018-09-16T10:37:42.349Z,30.37
2018-09-16T10:38:42.609Z,29.24
2018-09-16T10:39:42.856Z,28.19
2018-09-16T10:40:51.892Z,26.71
2018-09-16T10:41:53.308Z,26.99
2018-09-16T10:42:53.456Z,28.30
2018-09-16T10:43:44.055Z,28.45
2018-09-16T10:44:44.350Z,29.46
2018-09-16T10:45:44.588Z,29.85
2018-09-16T10:46:52.455Z,30.93
2018-09-16T10:47:45.146Z,30.68
2018-09-16T10:48:45.399Z,31.56
2018-09-16T10:49:45.652Z,32.06
2018-09-16T10:50:45.911Z,32.28
2018-09-16T10:51:46.166Z,30.55
2018-09-16T10:52:46.424Z,30.08
2018-09-16T10:53:46.675Z,30.62
2018-09-16T10:54:46.929Z,31.33
2018-09-16T10:55:47.185Z,29.91
2018-09-16T10:56:47.444Z,28.38
2018-09-16T10:57:47.695Z,26.64
2018-09-16T10:58:47.951Z,26.27
2018-09-16T10:59:48.209Z,26.67
2018-09-16T11:00:48.462Z,26.75
2018-09-16T11:01:48.719Z,26.81
2018-09-16T11:02:48.963Z,28.08
2018-09-16T11:03:49.228Z,27.58
2018-09-16T11:04:49.485Z,27.56
2018-09-16T11:05:49.740Z,29.20
2018-09-16T11:06:49.996Z,29.66
2018-09-16T11:07:50.257Z,29.31
2018-09-16T11:08:50.509Z,28.82
2018-09-16T11:09:50.765Z,28.44
2018-09-16T11:10:51.028Z,28.78
2018-09-16T11:11:51.276Z,27.55
2018-09-16T11:12:51.533Z,27.09
2018-09-16T11:13:51.789Z,26.01
2018-09-16T11:14:52.050Z,25.85
2018-09-16T11:15:52.452Z,27.11
2018-09-16T11:16:52.562Z,26.55
2018-09-16T11:17:52.821Z,26.33
2018-09-16T11:18:53.079Z,28.33
2018-09-16T11:19:53.335Z,29.34
2018-09-16T11:20:53.593Z,28.28
2018-09-16T11:21:53.851Z,27.61
2018-09-16T11:22:54.104Z,26.81
2018-09-16T11:23:54.363Z,26.51
2018-09-16T11:24:54.621Z,28.53
2018-09-16T11:25:54.880Z,29.32
2018-09-16T11:26:55.136Z,28.54
2018-09-16T11:27:55.399Z,29.11
2018-09-16T11:28:55.650Z,30.83
2018-09-16T11:29:55.968Z,31.77
2018-09-16T11:30:56.170Z,32.50
2018-09-16T11:31:56.422Z,32.94
2018-09-16T11:32:56.679Z,31.56
2018-09-16T11:33:56.935Z,29.08
2018-09-16T11:34:57.190Z,30.52
2018-09-16T11:35:57.447Z,31.57
2018-09-16T11:36:57.708Z,32.34
2018-09-16T11:37:57.964Z,33.65
2018-09-16T11:38:58.218Z,34.05
2018-09-16T11:39:58.475Z,34.90
2018-09-16T11:40:58.734Z,33.96
2018-09-16T11:41:58.985Z,34.17
2018-09-16T11:42:59.241Z,33.86
2018-09-16T11:43:59.495Z,32.84
2018-09-16T11:44:59.752Z,31.92
2018-09-16T11:46:00.008Z,30.81
2018-09-16T11:47:00.264Z,31.33
2018-09-16T11:48:00.519Z,29.90
2018-09-16T11:49:00.773Z,29.98
2018-09-16T11:50:01.030Z,29.91
2018-09-16T11:51:01.284Z,28.92
2018-09-16T11:52:01.543Z,30.88
2018-09-16T11:53:01.798Z,33.26
2018-09-16T11:54:02.061Z,34.20
2018-09-16T11:55:02.319Z,35.19
2018-09-16T11:56:02.571Z,34.16
2018-09-16T11:57:02.827Z,33.39
2018-09-16T11:58:03.082Z,31.67
2018-09-16T11:59:03.338Z,31.02
2018-09-16T12:00:03.594Z,29.79
2018-09-16T12:01:03.850Z,29.91
2018-09-16T12:02:04.113Z,29.88
2018-09-16T12:03:04.360Z,30.60
2018-09-16T12:04:04.616Z,31.48
2018-09-16T12:05:04.872Z,31.60
2018-09-16T12:06:05.126Z,29.81
2018-09-16T12:07:05.378Z,29.02
2018-09-16T12:08:05.634Z,29.06
2018-09-16T12:09:05.891Z,27.73
2018-09-16T12:10:06.145Z,26.48
2018-09-16T12:11:06.401Z,26.37
2018-09-16T12:12:06.658Z,26.07
2018-09-16T12:13:06.912Z,25.99
2018-09-16T12:14:07.168Z,25.59
2018-09-16T12:15:07.424Z,26.46
2018-09-16T12:16:07.736Z,26.20
2018-09-16T12:17:07.940Z,25.93
2018-09-16T12:18:08.192Z,25.35
2018-09-16T12:19:08.450Z,24.38
2018-09-16T12:20:08.709Z,24.38
2018-09-16T12:21:08.965Z,23.11
2018-09-16T12:22:09.221Z,24.17
2018-09-16T12:23:09.481Z,25.50
2018-09-16T12:24:09.737Z,26.44
2018-09-16T12:25:09.995Z,27.75
2018-09-16T12:26:10.252Z,29.72
2018-09-16T12:27:10.511Z,31.45
2018-09-16T12:28:10.768Z,31.88
2018-09-16T12:29:11.023Z,30.77
2018-09-16T12:30:11.283Z,29.24
2018-09-16T12:31:11.539Z,28.19
2018-09-16T12:32:11.800Z,28.89
2018-09-16T12:33:12.055Z,29.80
2018-09-16T12:34:12.310Z,28.99
2018-09-16T12:35:12.569Z,30.99
2018-09-16T12:36:12.824Z,30.97
2018-09-16T12:37:13.081Z,30.00
2018-09-16T12:38:13.333Z,29.50
2018-09-16T12:39:13.590Z,29.14
2018-09-16T12:40:13.845Z,28.11
2018-09-16T12:41:14.106Z,27.77
2018-09-16T12:42:14.360Z,28.32
2018-09-16T12:43:14.613Z,30.63
2018-09-16T12:44:14.869Z,32.23
2018-09-16T12:45:15.184Z,33.09
2018-09-16T12:46:15.382Z,34.24
2018-09-16T12:47:15.636Z,33.22
2018-09-16T12:48:15.893Z,32.81
2018-09-16T12:49:16.149Z,31.72
2018-09-16T12:50:16.407Z,30.79
2018-09-16T12:51:16.661Z,30.04
2018-09-16T12:52:16.925Z,29.56
2018-09-16T12:53:17.171Z,32.13
2018-09-16T12:54:17.434Z,34.42
2018-09-16T12:55:17.684Z,35.42
2018-09-16T12:56:17.940Z,34.00
2018-09-16T12:57:18.194Z,32.92